Terminal Aerodrome Forecast
Issued by NWS

Home | Current Version | Previous Version | Text Only | Print | Product List | Glossary On
Versions: 1 2 3 4 5 6 7 8 9 10 11 12 13 14 15 16 17
000
FTUS42 KJAX 261700
TAFVQQ
TAF
KVQQ 261720Z 2618/2718 25010KT P6SM VCTS SCT035CB BKN070
      TEMPO 2618/2620 VRB15G25KT 3SM TSRA BKN025CB
     FM262300 24004KT P6SM FEW030 SCT250=

USA.gov is the U.S. government's official web portal to all federal, state and local government web resources and services.